Terminal Aerodrome Forecast
Issued by NWS Louisville, KY

Home | Current Version | Previous Version | Text Only | Print | Product List | Glossary On
Versions: 1 2 3 4 5 6 7 8 9 10 11 12 13 14 15 16 17 18 19
000
FTUS43 KLMK 080525
TAFBWG
TAF
KBWG 080525Z 0806/0906 VRB03KT P6SM OVC100
     FM080900 31008KT P6SM BKN060 OVC100
     FM081500 29009G17KT P6SM BKN250
     FM090000 31005KT P6SM SCT250=

USA.gov is the U.S. government's official web portal to all federal, state and local government web resources and services.